sensor_id;sensor_type;location;lat;lon;timestamp;pressure;altitude;pressure_sealevel;temperature;humidity
2268;BME280;11052;43.338;25.502;2022-07-23T00:01:30;100478.13;;;19.45;100.00
2268;BME280;11052;43.338;25.502;2022-07-23T00:03:59;100484.34;;;19.44;100.00
2268;BME280;11052;43.338;25.502;2022-07-23T00:06:26;100487.91;;;19.43;100.00
2268;BME280;11052;43.338;25.502;2022-07-23T00:08:53;100484.34;;;19.44;100.00
2268;BME280;11052;43.338;25.502;2022-07-23T00:11:20;100480.97;;;19.42;100.00
2268;BME280;11052;43.338;25.502;2022-07-23T00:13:48;100488.94;;;19.40;100.00
2268;BME280;11052;43.338;25.502;2022-07-23T00:16:15;100482.59;;;19.30;100.00
2268;BME280;11052;43.338;25.502;2022-07-23T00:18:42;100482.41;;;19.19;100.00
2268;BME280;11052;43.338;25.502;2022-07-23T00:21:11;100483.25;;;19.19;100.00
2268;BME280;11052;43.338;25.502;2022-07-23T00:23:38;100487.03;;;19.15;100.00
2268;BME280;11052;43.338;25.502;2022-07-23T00:26:05;100488.31;;;19.22;100.00
2268;BME280;11052;43.338;25.502;2022-07-23T00:28:33;100490.56;;;19.28;100.00
2268;BME280;11052;43.338;25.502;2022-07-23T00:31:00;100484.28;;;19.31;100.00
2268;BME280;11052;43.338;25.502;2022-07-23T00:33:27;100485.97;;;19.32;100.00
2268;BME280;11052;43.338;25.502;2022-07-23T00:35:54;100490.56;;;19.28;100.00
2268;BME280;11052;43.338;25.502;2022-07-23T00:38:23;100493.94;;;19.30;100.00
2268;BME280;11052;43.338;25.502;2022-07-23T00:40:50;100490.31;;;19.19;100.00
2268;BME280;11052;43.338;25.502;2022-07-23T00:43:19;100484.94;;;19.20;100.00
2268;BME280;11052;43.338;25.502;2022-07-23T00:45:46;100484.09;;;19.20;100.00
2268;BME280;11052;43.338;25.502;2022-07-23T00:48:13;100486.81;;;19.18;100.00
2268;BME280;11052;43.338;25.502;2022-07-23T00:50:41;100485.97;;;19.18;100.00
2268;BME280;11052;43.338;25.502;2022-07-23T00:53:09;100488.72;;;19.16;100.00
2268;BME280;11052;43.338;25.502;2022-07-23T00:55:37;100486.28;;;19.13;100.00
2268;BME280;11052;43.338;25.502;2022-07-23T00:58:05;100489.94;;;19.11;100.00
2268;BME280;11052;43.338;25.502;2022-07-23T01:00:32;100488.09;;;18.98;100.00
2268;BME280;11052;43.338;25.502;2022-07-23T01:02:59;100477.94;;;19.07;100.00
2268;BME280;11052;43.338;25.502;2022-07-23T01:05:26;100483.31;;;19.05;100.00
2268;BME280;11052;43.338;25.502;2022-07-23T01:07:54;100483.69;;;18.99;100.00
2268;BME280;11052;43.338;25.502;2022-07-23T01:10:21;100489.88;;;18.84;100.00
2268;BME280;11052;43.338;25.502;2022-07-23T01:13:01;100493.25;;;18.86;100.00
2268;BME280;11052;43.338;25.502;2022-07-23T01:15:29;100485.38;;;18.86;100.00
2268;BME280;11052;43.338;25.502;2022-07-23T01:17:56;100492.41;;;18.85;100.00
2268;BME280;11052;43.338;25.502;2022-07-23T01:20:23;100489.13;;;18.82;100.00
2268;BME280;11052;43.338;25.502;2022-07-23T01:22:52;100487.63;;;18.92;100.00
2268;BME280;11052;43.338;25.502;2022-07-23T01:25:20;100484.16;;;18.91;100.00
2268;BME280;11052;43.338;25.502;2022-07-23T01:27:48;100489.50;;;18.90;100.00
2268;BME280;11052;43.338;25.502;2022-07-23T01:30:15;100489.69;;;18.87;100.00
2268;BME280;11052;43.338;25.502;2022-07-23T01:32:42;100492.41;;;18.85;100.00
2268;BME280;11052;43.338;25.502;2022-07-23T01:35:09;100497.28;;;18.77;100.00
2268;BME280;11052;43.338;25.502;2022-07-23T01:37:37;100503.19;;;18.81;100.00
2268;BME280;11052;43.338;25.502;2022-07-23T01:40:06;100491.94;;;18.79;100.00
2268;BME280;11052;43.338;25.502;2022-07-23T01:42:33;100496.16;;;18.81;100.00
2268;BME280;11052;43.338;25.502;2022-07-23T01:45:02;100491.94;;;18.79;100.00
2268;BME280;11052;43.338;25.502;2022-07-23T01:47:30;100493.06;;;18.75;100.00
2268;BME280;11052;43.338;25.502;2022-07-23T01:49:57;100493.06;;;18.60;100.00
2268;BME280;11052;43.338;25.502;2022-07-23T01:52:24;100496.09;;;18.53;100.00
2268;BME280;11052;43.338;25.502;2022-07-23T01:54:51;100490.75;;;18.54;100.00
2268;BME280;11052;43.338;25.502;2022-07-23T01:57:20;100492.63;;;18.52;100.00
2268;BME280;11052;43.338;25.502;2022-07-23T01:59:47;100499.22;;;18.59;100.00
2268;BME280;11052;43.338;25.502;2022-07-23T02:02:14;100491.50;;;18.56;100.00
2268;BME280;11052;43.338;25.502;2022-07-23T02:04:41;100493.13;;;18.59;100.00
2268;BME280;11052;43.338;25.502;2022-07-23T02:07:08;100491.13;;;18.48;100.00
2268;BME280;11052;43.338;25.502;2022-07-23T02:09:35;100497.28;;;18.33;100.00
2268;BME280;11052;43.338;25.502;2022-07-23T02:12:02;100497.47;;;18.30;100.00
2268;BME280;11052;43.338;25.502;2022-07-23T02:14:31;100496.63;;;18.29;100.00
2268;BME280;11052;43.338;25.502;2022-07-23T02:16:58;100486.97;;;18.30;100.00
2268;BME280;11052;43.338;25.502;2022-07-23T02:19:26;100499.06;;;18.32;100.00
2268;BME280;11052;43.338;25.502;2022-07-23T02:21:53;100504.97;;;18.36;100.00
2268;BME280;11052;43.338;25.502;2022-07-23T02:24:20;100504.88;;;18.38;100.00
2268;BME280;11052;43.338;25.502;2022-07-23T02:26:47;100508.63;;;18.33;100.00
2268;BME280;11052;43.338;25.502;2022-07-23T02:29:14;100514.63;;;18.35;100.00
2268;BME280;11052;43.338;25.502;2022-07-23T02:31:43;100511.34;;;18.32;100.00
2268;BME280;11052;43.338;25.502;2022-07-23T02:34:10;100518.47;;;18.30;100.00
2268;BME280;11052;43.338;25.502;2022-07-23T02:36:38;100517.44;;;18.32;100.00
2268;BME280;11052;43.338;25.502;2022-07-23T02:39:05;100515.66;;;18.33;100.00
2268;BME280;11052;43.338;25.502;2022-07-23T02:41:32;100522.69;;;18.32;100.00
2268;BME280;11052;43.338;25.502;2022-07-23T02:43:59;100520.06;;;18.32;100.00
2268;BME280;11052;43.338;25.502;2022-07-23T02:46:26;100522.78;;;18.31;100.00
2268;BME280;11052;43.338;25.502;2022-07-23T02:48:55;100521.09;;;18.30;100.00
2268;BME280;11052;43.338;25.502;2022-07-23T02:51:22;100516.00;;;18.27;100.00
2268;BME280;11052;43.338;25.502;2022-07-23T02:53:49;100523.03;;;18.26;100.00
2268;BME280;11052;43.338;25.502;2022-07-23T02:56:16;100525.09;;;18.21;100.00
2268;BME280;11052;43.338;25.502;2022-07-23T02:58:43;100533.09;;;18.20;100.00
2268;BME280;11052;43.338;25.502;2022-07-23T03:01:10;100534.03;;;18.19;100.00
2268;BME280;11052;43.338;25.502;2022-07-23T03:03:37;100530.56;;;18.18;100.00
2268;BME280;11052;43.338;25.502;2022-07-23T03:06:06;100540.47;;;18.13;100.00
2268;BME280;11052;43.338;25.502;2022-07-23T03:08:33;100539.13;;;18.06;100.00
2268;BME280;11052;43.338;25.502;2022-07-23T03:11:01;100542.25;;;18.13;100.00
2268;BME280;11052;43.338;25.502;2022-07-23T03:13:28;100543.09;;;18.13;100.00
2268;BME280;11052;43.338;25.502;2022-07-23T03:15:55;100546.66;;;18.12;100.00
2268;BME280;11052;43.338;25.502;2022-07-23T03:18:22;100545.22;;;18.07;100.00
2268;BME280;11052;43.338;25.502;2022-07-23T03:20:49;100551.56;;;18.02;100.00
2268;BME280;11052;43.338;25.502;2022-07-23T03:23:18;100551.91;;;17.96;100.00
2268;BME280;11052;43.338;25.502;2022-07-23T03:25:45;100549.03;;;18.01;100.00
2268;BME280;11052;43.338;25.502;2022-07-23T03:28:14;100552.09;;;17.93;100.00
2268;BME280;11052;43.338;25.502;2022-07-23T03:30:41;100550.56;;;17.89;100.00
2268;BME280;11052;43.338;25.502;2022-07-23T03:33:08;100554.63;;;17.95;100.00
2268;BME280;11052;43.338;25.502;2022-07-23T03:35:35;100560.38;;;18.01;100.00
2268;BME280;11052;43.338;25.502;2022-07-23T03:38:02;100554.50;;;18.12;100.00
2268;BME280;11052;43.338;25.502;2022-07-23T03:40:31;100557.13;;;18.12;100.00
2268;BME280;11052;43.338;25.502;2022-07-23T03:42:58;100558.34;;;18.21;100.00
2268;BME280;11052;43.338;25.502;2022-07-23T03:45:25;100559.78;;;18.26;100.00
2268;BME280;11052;43.338;25.502;2022-07-23T03:47:53;100562.31;;;18.28;100.00
2268;BME280;11052;43.338;25.502;2022-07-23T03:50:20;100554.44;;;18.28;100.00
2268;BME280;11052;43.338;25.502;2022-07-23T03:52:47;100558.69;;;18.30;100.00
2268;BME280;11052;43.338;25.502;2022-07-23T03:55:15;100556.28;;;18.42;100.00
2268;BME280;11052;43.338;25.502;2022-07-23T03:57:44;100555.56;;;18.54;100.00
2268;BME280;11052;43.338;25.502;2022-07-23T04:00:12;100554.28;;;18.61;100.00
2268;BME280;11052;43.338;25.502;2022-07-23T04:02:39;100555.25;;;18.74;100.00
2268;BME280;11052;43.338;25.502;2022-07-23T04:05:07;100554.81;;;18.82;100.00
2268;BME280;11052;43.338;25.502;2022-07-23T04:07:34;100557.63;;;18.93;100.00
2268;BME280;11052;43.338;25.502;2022-07-23T04:10:01;100559.69;;;19.02;100.00
2268;BME280;11052;43.338;25.502;2022-07-23T04:12:29;100552.91;;;19.12;100.00
2268;BME280;11052;43.338;25.502;2022-07-23T04:14:57;100561.91;;;19.22;100.00
2268;BME280;11052;43.338;25.502;2022-07-23T04:17:24;100550.00;;;19.31;100.00
2268;BME280;11052;43.338;25.502;2022-07-23T04:19:52;100563.50;;;19.39;100.00
2268;BME280;11052;43.338;25.502;2022-07-23T04:22:19;100553.34;;;19.47;100.00
2268;BME280;11052;43.338;25.502;2022-07-23T04:24:46;100557.88;;;19.59;100.00
2268;BME280;11052;43.338;25.502;2022-07-23T04:27:14;100552.88;;;19.69;100.00
2268;BME280;11052;43.338;25.502;2022-07-23T04:29:41;100556.31;;;19.84;100.00
2268;BME280;11052;43.338;25.502;2022-07-23T04:32:10;100549.53;;;20.07;100.00
2268;BME280;11052;43.338;25.502;2022-07-23T04:34:37;100554.78;;;20.34;100.00
2268;BME280;11052;43.338;25.502;2022-07-23T04:37:04;100552.13;;;20.60;100.00
2268;BME280;11052;43.338;25.502;2022-07-23T04:39:31;100560.31;;;20.94;100.00
2268;BME280;11052;43.338;25.502;2022-07-23T04:41:58;100554.75;;;21.24;100.00
2268;BME280;11052;43.338;25.502;2022-07-23T04:44:26;100557.31;;;21.62;100.00
2268;BME280;11052;43.338;25.502;2022-07-23T04:46:53;100568.75;;;21.98;100.00
2268;BME280;11052;43.338;25.502;2022-07-23T04:49:21;100570.53;;;22.34;100.00
2268;BME280;11052;43.338;25.502;2022-07-23T04:51:48;100563.66;;;22.77;100.00
2268;BME280;11052;43.338;25.502;2022-07-23T04:54:16;100560.13;;;23.12;100.00
2268;BME280;11052;43.338;25.502;2022-07-23T04:56:43;100559.84;;;23.48;100.00
2268;BME280;11052;43.338;25.502;2022-07-23T04:59:11;100570.16;;;23.85;100.00
2268;BME280;11052;43.338;25.502;2022-07-23T05:01:38;100572.34;;;24.12;100.00
2268;BME280;11052;43.338;25.502;2022-07-23T05:04:05;100571.03;;;24.38;100.00
2268;BME280;11052;43.338;25.502;2022-07-23T05:06:33;100566.53;;;24.71;100.00
2268;BME280;11052;43.338;25.502;2022-07-23T05:09:00;100571.78;;;25.03;100.00
2268;BME280;11052;43.338;25.502;2022-07-23T05:11:28;100572.13;;;25.29;100.00
2268;BME280;11052;43.338;25.502;2022-07-23T05:13:55;100570.69;;;25.55;100.00
2268;BME280;11052;43.338;25.502;2022-07-23T05:16:22;100568.13;;;25.74;100.00
2268;BME280;11052;43.338;25.502;2022-07-23T05:18:49;100567.44;;;25.82;100.00
2268;BME280;11052;43.338;25.502;2022-07-23T05:21:16;100567.44;;;25.92;100.00
2268;BME280;11052;43.338;25.502;2022-07-23T05:23:45;100567.44;;;26.01;89.55
2268;BME280;11052;43.338;25.502;2022-07-23T05:26:12;100571.91;;;26.20;88.55
2268;BME280;11052;43.338;25.502;2022-07-23T05:28:39;100574.75;;;26.48;88.29
2268;BME280;11052;43.338;25.502;2022-07-23T05:31:06;100571.06;;;26.77;89.33
2268;BME280;11052;43.338;25.502;2022-07-23T05:33:33;100576.84;;;27.10;82.96
2268;BME280;11052;43.338;25.502;2022-07-23T05:36:01;100576.28;;;27.43;72.55
2268;BME280;11052;43.338;25.502;2022-07-23T05:38:28;100574.50;;;27.71;79.61
2268;BME280;11052;43.338;25.502;2022-07-23T05:40:57;100574.41;;;27.99;71.44
2268;BME280;11052;43.338;25.502;2022-07-23T05:43:25;100573.00;;;28.22;62.23
2268;BME280;11052;43.338;25.502;2022-07-23T05:45:52;100580.44;;;28.54;72.43
2268;BME280;11052;43.338;25.502;2022-07-23T05:48:20;100578.06;;;28.77;69.08
2268;BME280;11052;43.338;25.502;2022-07-23T05:50:47;100586.06;;;28.95;58.11
2268;BME280;11052;43.338;25.502;2022-07-23T05:53:14;100580.19;;;28.91;61.01
2268;BME280;11052;43.338;25.502;2022-07-23T05:55:41;100579.44;;;28.81;58.19
2268;BME280;11052;43.338;25.502;2022-07-23T05:58:10;100583.97;;;29.07;55.73
2268;BME280;11052;43.338;25.502;2022-07-23T06:00:37;100583.91;;;29.24;56.24
2268;BME280;11052;43.338;25.502;2022-07-23T06:03:05;100589.34;;;29.49;55.47
2268;BME280;11052;43.338;25.502;2022-07-23T06:05:32;100586.22;;;29.61;55.17
2268;BME280;11052;43.338;25.502;2022-07-23T06:07:59;100584.97;;;29.98;53.53
2268;BME280;11052;43.338;25.502;2022-07-23T06:10:26;100590.22;;;30.16;54.05
2268;BME280;11052;43.338;25.502;2022-07-23T06:12:53;100584.72;;;30.17;51.65
2268;BME280;11052;43.338;25.502;2022-07-23T06:15:22;100586.19;;;30.36;54.54
2268;BME280;11052;43.338;25.502;2022-07-23T06:17:49;100579.69;;;30.47;49.80
2268;BME280;11052;43.338;25.502;2022-07-23T06:20:16;100582.88;;;30.75;51.61
2268;BME280;11052;43.338;25.502;2022-07-23T06:22:43;100580.66;;;30.94;50.00
2268;BME280;11052;43.338;25.502;2022-07-23T06:25:10;100580.72;;;31.25;48.37
2268;BME280;11052;43.338;25.502;2022-07-23T06:27:37;100583.75;;;31.61;48.38
2268;BME280;11052;43.338;25.502;2022-07-23T06:30:05;100586.16;;;31.48;45.82
2268;BME280;11052;43.338;25.502;2022-07-23T06:32:35;100585.78;;;31.59;45.85
2268;BME280;11052;43.338;25.502;2022-07-23T06:35:02;100579.69;;;31.74;46.26
2268;BME280;11052;43.338;25.502;2022-07-23T06:37:30;100587.13;;;31.94;45.57
2268;BME280;11052;43.338;25.502;2022-07-23T06:39:57;100590.69;;;32.10;43.92
2268;BME280;11052;43.338;25.502;2022-07-23T06:42:24;100584.06;;;32.43;44.87
2268;BME280;11052;43.338;25.502;2022-07-23T06:44:51;100589.13;;;32.61;44.46
2268;BME280;11052;43.338;25.502;2022-07-23T06:47:18;100587.06;;;32.86;44.86
2268;BME280;11052;43.338;25.502;2022-07-23T06:49:47;100585.38;;;33.00;43.53
2268;BME280;11052;43.338;25.502;2022-07-23T06:52:14;100584.09;;;33.10;43.44
2268;BME280;11052;43.338;25.502;2022-07-23T06:54:41;100589.28;;;32.97;43.18
2268;BME280;11052;43.338;25.502;2022-07-23T06:57:08;100582.50;;;33.01;43.59
2268;BME280;11052;43.338;25.502;2022-07-23T06:59:35;100582.88;;;32.98;42.94
2268;BME280;11052;43.338;25.502;2022-07-23T07:02:06;100580.84;;;33.15;43.00
2268;BME280;11052;43.338;25.502;2022-07-23T07:04:33;100572.97;;;33.13;45.13
2268;BME280;11052;43.338;25.502;2022-07-23T07:07:02;100573.34;;;33.25;44.33
2268;BME280;11052;43.338;25.502;2022-07-23T07:09:29;100570.84;;;33.38;44.38
2268;BME280;11052;43.338;25.502;2022-07-23T07:11:56;100578.09;;;33.38;43.42
2268;BME280;11052;43.338;25.502;2022-07-23T07:14:23;100571.81;;;33.67;45.75
2268;BME280;11052;43.338;25.502;2022-07-23T07:16:50;100573.28;;;34.05;42.59
2268;BME280;11052;43.338;25.502;2022-07-23T07:19:17;100577.50;;;34.57;44.08
2268;BME280;11052;43.338;25.502;2022-07-23T07:21:44;100577.72;;;34.90;40.78
2268;BME280;11052;43.338;25.502;2022-07-23T07:24:13;100581.56;;;35.09;42.78
2268;BME280;11052;43.338;25.502;2022-07-23T07:26:40;100578.47;;;35.12;39.41
2268;BME280;11052;43.338;25.502;2022-07-23T07:29:07;100577.53;;;34.92;40.90
2268;BME280;11052;43.338;25.502;2022-07-23T07:31:34;100573.44;;;34.74;40.46
2268;BME280;11052;43.338;25.502;2022-07-23T07:34:02;100565.47;;;34.32;41.28
2268;BME280;11052;43.338;25.502;2022-07-23T07:36:30;100563.03;;;34.37;42.27
2268;BME280;11052;43.338;25.502;2022-07-23T07:38:58;100566.31;;;34.60;40.65
2268;BME280;11052;43.338;25.502;2022-07-23T07:41:27;100561.44;;;34.77;40.72
2268;BME280;11052;43.338;25.502;2022-07-23T07:43:54;100567.00;;;34.97;39.12
2268;BME280;11052;43.338;25.502;2022-07-23T07:46:21;100561.75;;;35.23;38.89
2268;BME280;11052;43.338;25.502;2022-07-23T07:48:49;100566.19;;;35.37;40.57
2268;BME280;11052;43.338;25.502;2022-07-23T07:51:16;100561.69;;;35.58;38.33
2268;BME280;11052;43.338;25.502;2022-07-23T07:53:44;100562.94;;;35.68;39.25
2268;BME280;11052;43.338;25.502;2022-07-23T07:56:11;100563.91;;;35.34;39.19
2268;BME280;11052;43.338;25.502;2022-07-23T07:58:39;100558.97;;;35.44;40.00
2268;BME280;11052;43.338;25.502;2022-07-23T08:01:07;100555.66;;;35.49;39.41
2268;BME280;11052;43.338;25.502;2022-07-23T08:03:34;100561.84;;;35.43;39.23
2268;BME280;11052;43.338;25.502;2022-07-23T08:06:01;100558.56;;;35.54;38.80
2268;BME280;11052;43.338;25.502;2022-07-23T08:08:28;100559.97;;;35.37;37.81
2268;BME280;11052;43.338;25.502;2022-07-23T08:10:55;100561.03;;;35.42;40.41
2268;BME280;11052;43.338;25.502;2022-07-23T08:13:22;100550.94;;;35.77;40.11
2268;BME280;11052;43.338;25.502;2022-07-23T08:15:51;100550.28;;;35.69;39.04
2268;BME280;11052;43.338;25.502;2022-07-23T08:18:19;100547.69;;;35.95;39.25
2268;BME280;11052;43.338;25.502;2022-07-23T08:20:46;100555.81;;;36.08;36.36
2268;BME280;11052;43.338;25.502;2022-07-23T08:23:14;100545.22;;;36.07;36.28
2268;BME280;11052;43.338;25.502;2022-07-23T08:25:44;100547.53;;;36.30;37.16
2268;BME280;11052;43.338;25.502;2022-07-23T08:28:13;100552.50;;;36.26;37.43
2268;BME280;11052;43.338;25.502;2022-07-23T08:30:42;100554.16;;;36.21;36.22
2268;BME280;11052;43.338;25.502;2022-07-23T08:33:12;100547.75;;;36.28;36.63
2268;BME280;11052;43.338;25.502;2022-07-23T08:35:41;100548.16;;;36.38;37.53
2268;BME280;11052;43.338;25.502;2022-07-23T08:38:10;100545.03;;;36.35;37.72
2268;BME280;11052;43.338;25.502;2022-07-23T08:40:39;100545.00;;;36.41;37.57
2268;BME280;11052;43.338;25.502;2022-07-23T08:43:08;100549.56;;;36.67;36.31
2268;BME280;11052;43.338;25.502;2022-07-23T08:45:38;100545.19;;;36.73;37.63
2268;BME280;11052;43.338;25.502;2022-07-23T08:48:08;100542.69;;;36.85;35.79
2268;BME280;11052;43.338;25.502;2022-07-23T08:50:37;100542.06;;;36.89;35.23
2268;BME280;11052;43.338;25.502;2022-07-23T08:53:07;100535.63;;;36.64;36.09
2268;BME280;11052;43.338;25.502;2022-07-23T08:55:34;100530.03;;;36.59;37.40
2268;BME280;11052;43.338;25.502;2022-07-23T08:58:02;100536.69;;;36.63;35.77
2268;BME280;11052;43.338;25.502;2022-07-23T09:00:29;100529.84;;;36.40;35.39
2268;BME280;11052;43.338;25.502;2022-07-23T09:02:57;100536.88;;;36.61;36.54
2268;BME280;11052;43.338;25.502;2022-07-23T09:05:24;100532.31;;;36.68;36.40
2268;BME280;11052;43.338;25.502;2022-07-23T09:08:09;100533.78;;;36.58;35.41
2268;BME280;11052;43.338;25.502;2022-07-23T09:10:46;100532.50;;;36.87;36.26
2268;BME280;11052;43.338;25.502;2022-07-23T09:13:33;100533.28;;;37.00;36.08
2268;BME280;11052;43.338;25.502;2022-07-23T09:16:05;100532.06;;;37.48;35.68
2268;BME280;11052;43.338;25.502;2022-07-23T09:18:38;100532.66;;;37.50;37.64
2268;BME280;11052;43.338;25.502;2022-07-23T09:21:20;100522.59;;;37.63;34.54
2268;BME280;11052;43.338;25.502;2022-07-23T09:23:52;100524.94;;;37.53;35.26
2268;BME280;11052;43.338;25.502;2022-07-23T09:26:31;100521.34;;;37.72;35.16
2268;BME280;11052;43.338;25.502;2022-07-23T09:29:02;100522.34;;;37.78;35.45
2268;BME280;11052;43.338;25.502;2022-07-23T09:31:47;100526.03;;;37.46;33.96
2268;BME280;11052;43.338;25.502;2022-07-23T09:34:17;100524.69;;;37.61;33.05
2268;BME280;11052;43.338;25.502;2022-07-23T09:36:45;100523.22;;;37.72;33.17
2268;BME280;11052;43.338;25.502;2022-07-23T09:39:15;100520.53;;;37.97;33.88
2268;BME280;11052;43.338;25.502;2022-07-23T09:41:45;100516.81;;;37.91;32.07
2268;BME280;11052;43.338;25.502;2022-07-23T09:44:14;100521.84;;;37.88;31.76
2268;BME280;11052;43.338;25.502;2022-07-23T09:46:42;100516.78;;;38.23;33.05
2268;BME280;11052;43.338;25.502;2022-07-23T09:49:15;100514.88;;;38.48;34.44
2268;BME280;11052;43.338;25.502;2022-07-23T09:52:00;100513.66;;;38.87;34.01
2268;BME280;11052;43.338;25.502;2022-07-23T09:54:32;100509.97;;;38.82;32.52
2268;BME280;11052;43.338;25.502;2022-07-23T09:57:02;100507.88;;;38.65;32.15
2268;BME280;11052;43.338;25.502;2022-07-23T09:59:33;100511.84;;;38.63;34.21
2268;BME280;11052;43.338;25.502;2022-07-23T10:02:01;100494.16;;;38.97;33.02
2268;BME280;11052;43.338;25.502;2022-07-23T10:04:30;100493.97;;;38.55;32.13
2268;BME280;11052;43.338;25.502;2022-07-23T10:06:59;100502.06;;;38.62;33.02
2268;BME280;11052;43.338;25.502;2022-07-23T10:09:29;100493.72;;;39.00;32.89
2268;BME280;11052;43.338;25.502;2022-07-23T10:11:59;100496.34;;;39.55;32.95
2268;BME280;11052;43.338;25.502;2022-07-23T10:14:41;100494.72;;;39.65;30.19
2268;BME280;11052;43.338;25.502;2022-07-23T10:17:09;100484.78;;;39.59;31.12
2268;BME280;11052;43.338;25.502;2022-07-23T10:19:36;100492.97;;;39.41;31.19
2268;BME280;11052;43.338;25.502;2022-07-23T10:22:06;100484.88;;;39.53;30.33
2268;BME280;11052;43.338;25.502;2022-07-23T10:24:47;100481.38;;;39.64;29.53
2268;BME280;11052;43.338;25.502;2022-07-23T10:27:37;100483.19;;;39.22;28.87
2268;BME280;11052;43.338;25.502;2022-07-23T10:30:10;100476.22;;;39.44;31.41
2268;BME280;11052;43.338;25.502;2022-07-23T10:32:45;100473.91;;;39.48;29.53
2268;BME280;11052;43.338;25.502;2022-07-23T10:35:21;100462.94;;;39.24;30.42
2268;BME280;11052;43.338;25.502;2022-07-23T10:37:53;100457.81;;;39.16;31.47
2268;BME280;11052;43.338;25.502;2022-07-23T10:40:23;100458.00;;;39.33;29.03
2268;BME280;11052;43.338;25.502;2022-07-23T10:42:52;100449.09;;;39.14;29.73
2268;BME280;11052;43.338;25.502;2022-07-23T10:45:29;100451.97;;;39.31;29.53
2268;BME280;11052;43.338;25.502;2022-07-23T10:48:12;100453.78;;;39.37;30.23
2268;BME280;11052;43.338;25.502;2022-07-23T10:50:41;100447.34;;;39.20;28.88
2268;BME280;11052;43.338;25.502;2022-07-23T10:53:15;100441.31;;;39.18;29.22
2268;BME280;11052;43.338;25.502;2022-07-23T10:55:51;100443.75;;;39.38;29.36
2268;BME280;11052;43.338;25.502;2022-07-23T10:58:22;100432.41;;;39.71;29.23
2268;BME280;11052;43.338;25.502;2022-07-23T11:00:49;100438.09;;;39.92;29.43
2268;BME280;11052;43.338;25.502;2022-07-23T11:03:34;100434.88;;;39.72;30.00
2268;BME280;11052;43.338;25.502;2022-07-23T11:06:05;100430.66;;;39.76;28.27
2268;BME280;11052;43.338;25.502;2022-07-23T11:08:32;100430.44;;;40.13;28.51
2268;BME280;11052;43.338;25.502;2022-07-23T11:11:10;100424.75;;;40.03;27.19
2268;BME280;11052;43.338;25.502;2022-07-23T11:13:47;100411.66;;;40.00;27.02
2268;BME280;11052;43.338;25.502;2022-07-23T11:16:17;100414.00;;;40.08;27.68
2268;BME280;11052;43.338;25.502;2022-07-23T11:19:08;100416.72;;;40.19;27.91
2268;BME280;11052;43.338;25.502;2022-07-23T11:21:53;100418.84;;;39.94;26.67
2268;BME280;11052;43.338;25.502;2022-07-23T11:24:23;100416.09;;;39.59;27.14
2268;BME280;11052;43.338;25.502;2022-07-23T11:27:00;100409.47;;;39.55;26.94
2268;BME280;11052;43.338;25.502;2022-07-23T11:29:49;100410.59;;;39.77;27.36
2268;BME280;11052;43.338;25.502;2022-07-23T11:32:37;100410.47;;;39.72;27.73
2268;BME280;11052;43.338;25.502;2022-07-23T11:35:21;100410.34;;;39.67;27.55
2268;BME280;11052;43.338;25.502;2022-07-23T11:37:49;100406.94;;;39.95;27.15
2268;BME280;11052;43.338;25.502;2022-07-23T11:40:20;100410.22;;;40.20;27.49
2268;BME280;11052;43.338;25.502;2022-07-23T11:42:58;100400.91;;;40.40;26.85
2268;BME280;11052;43.338;25.502;2022-07-23T11:45:31;100410.94;;;40.04;26.14
2268;BME280;11052;43.338;25.502;2022-07-23T11:47:59;100400.31;;;39.68;26.32
2268;BME280;11052;43.338;25.502;2022-07-23T11:50:28;100397.56;;;39.56;27.73
2268;BME280;11052;43.338;25.502;2022-07-23T11:52:55;100396.88;;;39.30;26.76
2268;BME280;11052;43.338;25.502;2022-07-23T11:55:23;100386.09;;;39.12;28.22
2268;BME280;11052;43.338;25.502;2022-07-23T11:57:52;100380.84;;;39.29;28.34
2268;BME280;11052;43.338;25.502;2022-07-23T12:00:21;100389.31;;;39.51;27.16
2268;BME280;11052;43.338;25.502;2022-07-23T12:02:51;100386.34;;;39.52;26.17
2268;BME280;11052;43.338;25.502;2022-07-23T12:05:21;100385.75;;;39.50;26.83
2268;BME280;11052;43.338;25.502;2022-07-23T12:07:50;100386.13;;;39.54;27.38
2268;BME280;11052;43.338;25.502;2022-07-23T12:10:18;100381.31;;;39.79;27.12
2268;BME280;11052;43.338;25.502;2022-07-23T12:12:47;100378.94;;;39.94;26.06
2268;BME280;11052;43.338;25.502;2022-07-23T12:15:17;100387.78;;;40.13;26.97
2268;BME280;11052;43.338;25.502;2022-07-23T12:17:46;100377.03;;;40.18;26.01
2268;BME280;11052;43.338;25.502;2022-07-23T12:20:18;100379.06;;;40.00;27.12
2268;BME280;11052;43.338;25.502;2022-07-23T12:22:46;100378.31;;;40.27;25.58
2268;BME280;11052;43.338;25.502;2022-07-23T12:25:15;100366.97;;;40.42;26.41
2268;BME280;11052;43.338;25.502;2022-07-23T12:27:43;100365.34;;;40.18;25.96
2268;BME280;11052;43.338;25.502;2022-07-23T12:30:21;100368.06;;;40.18;26.08
2268;BME280;11052;43.338;25.502;2022-07-23T12:32:50;100363.47;;;40.18;26.54
2268;BME280;11052;43.338;25.502;2022-07-23T12:35:19;100362.63;;;40.18;25.61
2268;BME280;11052;43.338;25.502;2022-07-23T12:37:48;100368.31;;;40.05;25.57
2268;BME280;11052;43.338;25.502;2022-07-23T12:40:30;100359.94;;;39.83;26.31
2268;BME280;11052;43.338;25.502;2022-07-23T12:42:59;100364.41;;;40.01;26.46
2268;BME280;11052;43.338;25.502;2022-07-23T12:45:42;100352.03;;;39.81;26.53
2268;BME280;11052;43.338;25.502;2022-07-23T12:48:16;100358.03;;;39.95;26.69
2268;BME280;11052;43.338;25.502;2022-07-23T12:50:50;100354.59;;;40.11;26.54
2268;BME280;11052;43.338;25.502;2022-07-23T12:53:18;100351.16;;;40.27;27.38
2268;BME280;11052;43.338;25.502;2022-07-23T12:55:47;100346.06;;;40.31;26.76